Time;durP1;ratioP1;P1;durP2;ratioP2;P2;SDS_P1;SDS_P2;PMS_P1;PMS_P2;Temp;Humidity;BMP_temperature;BMP_pressure;BME280_temperature;BME280_humidity;BME280_pressure;Samples;Min_cycle;Max_cycle;Signal;HPM_P1;HPM_P2
2022/11/22 00:00:27;;;;;;;2.50;2.30;;;;;;;2.25;100.00;98335.59;1758982;80;27075;-66
2022/11/22 00:02:54;;;;;;;1.98;1.87;;;;;;;2.18;100.00;98345.73;1727056;81;21489;-67
2022/11/22 00:05:21;;;;;;;2.42;2.02;;;;;;;2.14;100.00;98344.52;1729280;81;21483;-69
2022/11/22 00:07:47;;;;;;;2.27;2.08;;;;;;;2.23;100.00;98351.65;1759916;79;21807;-69
2022/11/22 00:10:15;;;;;;;2.02;1.92;;;;;;;2.21;100.00;98354.73;1759911;79;21565;-69
2022/11/22 00:12:42;;;;;;;2.42;2.20;;;;;;;2.31;100.00;98346.61;1761282;79;21434;-69
2022/11/22 00:15:10;;;;;;;2.40;2.20;;;;;;;2.25;100.00;98348.56;1760077;79;26798;-69
2022/11/22 00:17:38;;;;;;;4.95;1.90;;;;;;;2.28;100.00;98351.91;1757618;79;21568;-69
2022/11/22 00:20:07;;;;;;;1.90;1.75;;;;;;;2.24;100.00;98351.61;1758793;79;21972;-68
2022/11/22 00:22:34;;;;;;;2.00;1.90;;;;;;;1.89;100.00;98299.48;1725375;81;21082;-69
2022/11/22 00:25:00;;;;;;;1.67;1.57;;;;;;;2.24;100.00;98354.63;1758513;80;21557;-69
2022/11/22 00:27:27;;;;;;;1.62;1.52;;;;;;;2.27;100.00;98357.98;1759869;79;21490;-69
2022/11/22 00:29:54;;;;;;;2.58;2.25;;;;;;;2.28;100.00;98358.40;1747299;80;21595;-69
2022/11/22 00:32:20;;;;;;;1.35;1.25;;;;;;;2.30;100.00;98355.31;1728942;81;21818;-69
2022/11/22 00:34:47;;;;;;;1.37;1.27;;;;;;;2.25;100.00;98349.40;1759310;79;21528;-70
2022/11/22 00:37:13;;;;;;;1.30;1.20;;;;;;;2.24;100.00;98353.33;1761101;79;21556;-70
2022/11/22 00:39:40;;;;;;;1.35;1.25;;;;;;;2.26;100.00;98352.83;1739104;81;21539;-70
2022/11/22 00:42:06;;;;;;;1.40;1.30;;;;;;;2.30;100.00;98358.36;1760624;79;21623;-69
2022/11/22 00:44:33;;;;;;;1.40;1.30;;;;;;;2.34;100.00;98354.31;1759117;79;21772;-69
2022/11/22 00:47:00;;;;;;;1.55;1.45;;;;;;;2.29;100.00;98350.16;1728796;81;21509;-69
2022/11/22 00:49:26;;;;;;;1.40;1.30;;;;;;;2.23;100.00;98346.45;1752609;80;21036;-70
2022/11/22 00:51:53;;;;;;;1.20;1.12;;;;;;;2.17;100.00;98356.56;1722953;81;21538;-69
2022/11/22 00:54:20;;;;;;;1.60;1.50;;;;;;;2.09;100.00;98355.92;1756727;79;21422;-68
2022/11/22 00:56:47;;;;;;;1.32;1.22;;;;;;;2.02;100.00;98360.45;1730416;78;21477;-66
2022/11/22 00:59:13;;;;;;;1.10;1.10;;;;;;;1.98;100.00;98362.73;1793283;77;21545;-67
2022/11/22 01:01:40;;;;;;;1.32;1.20;;;;;;;2.05;100.00;98365.98;1804145;79;20995;-66
2022/11/22 01:04:07;;;;;;;1.50;1.40;;;;;;;2.05;100.00;98362.94;1806442;78;21499;-66
2022/11/22 01:06:34;;;;;;;1.30;1.22;;;;;;;1.95;100.00;98371.88;1807484;78;21542;-66
2022/11/22 01:09:01;;;;;;;1.35;1.27;;;;;;;1.91;100.00;98375.00;1806285;77;22053;-66
2022/11/22 01:11:28;;;;;;;1.87;1.75;;;;;;;1.97;100.00;98382.22;1806727;77;21546;-67
2022/11/22 01:13:55;;;;;;;1.80;1.70;;;;;;;1.80;100.00;98384.82;1774984;78;21540;-66
2022/11/22 01:16:21;;;;;;;1.77;1.67;;;;;;;1.68;100.00;98382.58;1803797;78;21422;-66
2022/11/22 01:18:48;;;;;;;1.95;1.62;;;;;;;1.65;100.00;98380.90;1771500;80;21553;-66
2022/11/22 01:21:15;;;;;;;1.90;1.70;;;;;;;1.47;100.00;98400.39;1775885;80;21800;-66
2022/11/22 01:23:43;;;;;;;2.05;1.85;;;;;;;1.40;100.00;98403.17;1774479;79;21592;-66
2022/11/22 01:26:11;;;;;;;2.20;2.10;;;;;;;1.39;100.00;98395.83;1771101;80;21462;-65
2022/11/22 01:28:38;;;;;;;1.80;1.70;;;;;;;1.43;100.00;98401.78;1765955;78;21454;-66
2022/11/22 01:31:05;;;;;;;2.25;2.05;;;;;;;1.36;100.00;98394.17;1770306;78;21508;-66
2022/11/22 01:33:32;;;;;;;2.20;2.00;;;;;;;1.34;100.00;98399.84;1764612;78;22158;-66
2022/11/22 01:36:00;;;;;;;2.25;2.05;;;;;;;1.34;100.00;98410.66;1801643;77;21547;-66
2022/11/22 01:38:26;;;;;;;1.98;1.87;;;;;;;1.32;100.00;98411.98;1796507;78;21514;-67
2022/11/22 01:40:53;;;;;;;2.40;2.20;;;;;;;1.38;100.00;98414.86;1779118;78;21455;-66
2022/11/22 01:43:23;;;;;;;2.70;2.40;;;;;;;1.34;100.00;98407.61;1779197;78;21610;-66
2022/11/22 01:46:01;;;;;;;2.60;2.40;;;;;;;1.28;100.00;98415.55;1782181;79;21937;-66
2022/11/22 01:48:33;;;;;;;2.62;2.00;;;;;;;1.26;100.00;98421.63;1788115;79;21556;-66
2022/11/22 01:51:40;;;;;;;2.27;2.12;;;;;;;1.20;100.00;98416.61;1775747;78;22412;-67
2022/11/22 01:54:11;;;;;;;3.05;2.75;;;;;;;1.12;100.00;98412.47;1783762;78;21555;-67
2022/11/22 01:56:38;;;;;;;2.52;2.27;;;;;;;1.06;100.00;98413.08;1767832;78;21190;-67
2022/11/22 01:59:09;;;;;;;2.40;2.20;;;;;;;1.03;100.00;98407.95;1751948;80;21979;-68
2022/11/22 02:01:37;;;;;;;2.72;2.52;;;;;;;1.03;100.00;98410.09;1757608;81;21590;-68
2022/11/22 02:04:05;;;;;;;2.70;2.50;;;;;;;1.02;100.00;98404.53;1737024;80;21108;-68
2022/11/22 02:06:40;;;;;;;3.62;3.33;;;;;;;0.99;100.00;98411.06;1738913;80;21580;-68
2022/11/22 02:09:11;;;;;;;3.05;2.85;;;;;;;0.94;100.00;98408.59;1757919;80;21040;-67
2022/11/22 02:11:43;;;;;;;3.37;3.10;;;;;;;0.94;100.00;98424.55;1725097;81;21479;-68
2022/11/22 02:14:10;;;;;;;3.55;3.25;;;;;;;0.91;100.00;98420.30;1736224;80;20957;-70
2022/11/22 02:16:37;;;;;;;3.52;3.10;;;;;;;0.84;100.00;98420.48;1729507;81;20973;-65
2022/11/22 02:19:05;;;;;;;4.08;3.08;;;;;;;0.84;100.00;98423.91;1755990;79;21549;-65
2022/11/22 02:21:31;;;;;;;3.40;3.10;;;;;;;0.89;100.00;98433.72;1756923;79;21525;-65
2022/11/22 02:24:16;;;;;;;3.75;3.45;;;;;;;0.95;100.00;98432.73;1732099;80;21884;-66
2022/11/22 02:26:44;;;;;;;4.10;3.52;;;;;;;0.94;100.00;98428.42;1728401;81;21526;-66
2022/11/22 02:29:12;;;;;;;3.87;3.52;;;;;;;0.89;100.00;98435.02;1726102;81;21580;-66
2022/11/22 02:31:44;;;;;;;4.37;3.98;;;;;;;0.85;100.00;98429.52;1748994;79;21512;-65
2022/11/22 02:34:12;;;;;;;4.30;3.92;;;;;;;0.89;100.00;98441.94;1726242;81;21446;-65
2022/11/22 02:36:43;;;;;;;4.05;3.65;;;;;;;0.90;100.00;98434.56;1759043;80;21453;-65
2022/11/22 02:39:12;;;;;;;4.22;3.83;;;;;;;0.90;100.00;98441.88;1735861;80;21478;-66
2022/11/22 02:41:41;;;;;;;4.03;3.72;;;;;;;0.92;100.00;98448.31;1757551;79;20986;-66
2022/11/22 02:44:09;;;;;;;4.35;3.85;;;;;;;1.00;100.00;98461.95;1758292;79;21518;-66
2022/11/22 02:46:48;;;;;;;4.03;3.62;;;;;;;1.01;100.00;98456.33;1727492;79;21490;-67
2022/11/22 02:49:19;;;;;;;4.10;3.80;;;;;;;0.96;100.00;98456.42;1724915;81;22025;-68
2022/11/22 02:51:46;;;;;;;4.42;4.03;;;;;;;0.92;100.00;98462.13;1756328;79;20975;-67
2022/11/22 02:54:13;;;;;;;4.72;4.33;;;;;;;0.87;100.00;98457.95;1757430;79;21651;-67
2022/11/22 02:56:41;;;;;;;4.90;4.50;;;;;;;0.86;100.00;98460.95;1758067;79;21520;-66
2022/11/22 02:59:08;;;;;;;4.65;4.20;;;;;;;0.81;100.00;98464.53;1784007;79;21498;-66
2022/11/22 03:01:35;;;;;;;4.50;4.10;;;;;;;0.72;100.00;98476.80;1786214;78;22120;-67
2022/11/22 03:04:02;;;;;;;5.22;4.72;;;;;;;0.73;100.00;98482.81;1784409;79;22001;-66
2022/11/22 03:06:30;;;;;;;4.87;4.37;;;;;;;0.72;100.00;98484.56;1789333;79;28550;-67
2022/11/22 03:08:56;;;;;;;5.28;4.58;;;;;;;0.67;100.00;98477.78;1783854;78;21438;-65
2022/11/22 03:11:23;;;;;;;6.00;5.05;;;;;;;0.72;100.00;98475.95;1790050;79;21600;-66
2022/11/22 03:13:50;;;;;;;4.80;4.40;;;;;;;0.72;100.00;98482.42;1771383;78;21908;-66
2022/11/22 03:16:17;;;;;;;4.45;4.05;;;;;;;0.72;100.00;98488.44;1779259;78;21801;-66
2022/11/22 03:18:43;;;;;;;5.15;4.65;;;;;;;0.71;100.00;98495.78;1777116;78;21398;-66
2022/11/22 03:21:12;;;;;;;5.25;4.75;;;;;;;0.69;100.00;98496.70;1782012;79;21524;-66
2022/11/22 03:23:38;;;;;;;4.47;4.08;;;;;;;0.68;100.00;98494.98;1789716;79;21524;-66
2022/11/22 03:26:08;;;;;;;4.60;4.20;;;;;;;0.64;100.00;98499.41;1781729;78;21856;-66
2022/11/22 03:28:35;;;;;;;4.87;4.20;;;;;;;0.67;100.00;98500.61;1774760;79;21486;-66
2022/11/22 03:31:07;;;;;;;4.20;3.80;;;;;;;0.62;100.00;98499.01;1785746;78;21663;-66
2022/11/22 03:33:35;;;;;;;4.55;3.95;;;;;;;0.67;100.00;98503.20;1781564;79;21018;-66
2022/11/22 03:36:02;;;;;;;5.97;4.15;;;;;;;0.70;100.00;98503.15;1777677;79;21647;-66
2022/11/22 03:38:29;;;;;;;4.60;3.83;;;;;;;0.72;100.00;98510.44;1775911;79;21446;-67
2022/11/22 03:40:55;;;;;;;3.95;3.65;;;;;;;0.68;100.00;98504.92;1776693;79;21568;-66
2022/11/22 03:43:22;;;;;;;5.23;3.47;;;;;;;0.68;100.00;98512.68;1782481;79;21430;-66
2022/11/22 03:45:49;;;;;;;4.10;3.70;;;;;;;0.72;100.00;98527.70;1775300;78;21531;-67
2022/11/22 03:48:15;;;;;;;4.58;4.15;;;;;;;0.73;100.00;98526.80;1786393;78;21496;-67
2022/11/22 03:50:42;;;;;;;4.75;4.05;;;;;;;0.65;100.00;98536.02;1773318;79;21420;-69
2022/11/22 03:53:09;;;;;;;4.47;4.07;;;;;;;0.65;100.00;98541.19;1780174;78;21410;-66
2022/11/22 03:55:36;;;;;;;4.03;3.70;;;;;;;0.58;100.00;98536.59;1776638;79;21502;-66
2022/11/22 03:58:02;;;;;;;3.92;3.62;;;;;;;0.50;100.00;98533.30;1788788;78;21671;-66
2022/11/22 04:00:29;;;;;;;4.23;3.83;;;;;;;0.57;100.00;98521.11;1779697;78;21587;-66
2022/11/22 04:02:56;;;;;;;5.42;4.22;;;;;;;0.57;100.00;98529.70;1804255;78;21883;-66
2022/11/22 04:05:23;;;;;;;4.87;4.47;;;;;;;0.50;100.00;98535.03;1787743;78;21116;-67
2022/11/22 04:07:54;;;;;;;4.40;4.00;;;;;;;0.56;100.00;98542.66;1779289;78;22007;-67
2022/11/22 04:10:18;;;;;;;4.78;4.37;;;;;;;0.58;100.00;98535.30;1792000;78;21521;-67
2022/11/22 04:12:45;;;;;;;4.25;3.17;;;;;;;0.64;100.00;98534.33;1803898;78;21525;-67
2022/11/22 04:15:13;;;;;;;4.67;4.28;;;;;;;0.58;100.00;98527.96;1800898;77;21745;-66
2022/11/22 04:17:43;;;;;;;4.75;4.35;;;;;;;0.54;100.00;98525.88;1791120;78;21434;-67
2022/11/22 04:23:19;;;;;;;5.22;4.60;;;;;;;0.61;100.00;98531.80;1798025;78;21444;-67
2022/11/22 04:25:50;;;;;;;5.40;4.80;;;;;;;0.66;100.00;98540.33;1793237;78;22101;-67
2022/11/22 04:28:20;;;;;;;4.55;4.15;;;;;;;0.78;100.00;98552.15;1795976;79;21973;-67
2022/11/22 04:33:32;;;;;;;5.00;4.50;;;;;;;0.76;100.00;98555.21;1801922;78;21653;-67
2022/11/22 04:35:59;;;;;;;4.80;4.40;;;;;;;0.76;100.00;98561.68;1779491;79;21671;-67
2022/11/22 04:38:26;;;;;;;5.28;4.78;;;;;;;0.75;100.00;98568.60;1777360;79;21563;-67
2022/11/22 04:40:52;;;;;;;4.40;4.00;;;;;;;0.77;100.00;98568.13;1774700;78;21884;-68
2022/11/22 04:46:13;;;;;;;4.75;4.33;;;;;;;0.73;100.00;98561.28;1787675;78;21513;-67
2022/11/22 04:48:40;;;;;;;3.90;3.58;;;;;;;0.69;100.00;98556.21;1776961;78;21059;-66
2022/11/22 04:53:53;;;;;;;4.35;3.98;;;;;;;0.71;100.00;98566.09;1778563;79;21921;-69
2022/11/22 04:56:20;;;;;;;4.35;3.95;;;;;;;0.74;100.00;98561.70;1777856;79;21493;-69
2022/11/22 04:58:50;;;;;;;4.12;3.72;;;;;;;0.70;100.00;98566.53;1766444;79;21577;-69
2022/11/22 05:01:15;;;;;;;4.80;4.40;;;;;;;0.64;100.00;98573.14;1771568;79;21048;-69
2022/11/22 05:03:41;;;;;;;5.35;4.37;;;;;;;0.64;100.00;98578.31;1772994;79;21592;-70
2022/11/22 05:06:09;;;;;;;5.17;4.67;;;;;;;0.62;100.00;98583.92;1762930;79;21939;-69
2022/11/22 05:08:35;;;;;;;;;;;;;;;0.62;100.00;98580.49;1709997;80;21581;-69
2022/11/22 05:11:04;;;;;;;6.33;4.33;;;;;;;0.57;100.00;98579.30;1779401;79;20299;-68
2022/11/22 05:13:35;;;;;;;5.35;4.85;;;;;;;0.55;100.00;98583.66;1772893;80;21429;-69
2022/11/22 05:16:05;;;;;;;4.33;4.00;;;;;;;0.47;100.00;98591.98;1743195;79;21552;-71
2022/11/22 05:18:33;;;;;;;4.67;4.28;;;;;;;0.47;100.00;98599.33;1734960;80;21455;-70
2022/11/22 05:21:06;;;;;;;5.37;4.70;;;;;;;0.49;100.00;98594.98;1743501;80;21514;-70
2022/11/22 05:26:17;;;;;;;5.12;4.65;;;;;;;0.36;100.00;98596.93;1765239;79;21104;-67
2022/11/22 05:28:44;;;;;;;4.62;4.20;;;;;;;0.39;100.00;98591.68;1786683;79;21607;-68
2022/11/22 05:31:21;;;;;;;5.27;4.77;;;;;;;0.44;100.00;98590.77;1763398;79;21873;-66
2022/11/22 05:33:47;;;;;;;5.87;5.37;;;;;;;0.39;100.00;98588.25;1781893;79;21608;-65
2022/11/22 05:36:13;;;;;;;5.70;5.20;;;;;;;0.36;100.00;98592.20;1748020;79;21469;-64
2022/11/22 05:38:40;;;;;;;5.47;4.97;;;;;;;0.43;100.00;98591.19;1770179;79;21605;-62
2022/11/22 05:41:12;;;;;;;5.03;4.53;;;;;;;0.46;100.00;98599.34;1764335;79;21620;-64
2022/11/22 05:43:39;;;;;;;4.85;4.35;;;;;;;0.51;100.00;98608.73;1766391;79;21846;-64
2022/11/22 05:46:15;;;;;;;4.97;4.47;;;;;;;0.61;100.00;98609.41;1770708;79;21514;-67
2022/11/22 05:48:44;;;;;;;5.67;4.50;;;;;;;0.48;100.00;98607.93;1768903;79;21635;-67
2022/11/22 05:51:13;;;;;;;5.58;4.97;;;;;;;0.50;100.00;98612.63;1769374;79;21570;-67
2022/11/22 05:53:41;;;;;;;5.75;5.25;;;;;;;0.59;100.00;98617.64;1756507;80;21564;-66
2022/11/22 05:56:09;;;;;;;5.92;5.33;;;;;;;0.59;100.00;98622.81;1772086;79;22510;-65
2022/11/22 05:58:36;;;;;;;6.40;5.47;;;;;;;0.52;100.00;98623.80;1773305;79;21527;-64
2022/11/22 06:01:08;;;;;;;6.05;5.37;;;;;;;0.52;100.00;98629.81;1786072;79;21546;-66
2022/11/22 06:03:35;;;;;;;6.12;5.58;;;;;;;0.54;100.00;98628.50;1776208;79;21587;-65
2022/11/22 06:06:03;;;;;;;6.60;6.00;;;;;;;0.61;100.00;98639.16;1784274;78;21630;-73
2022/11/22 06:08:31;;;;;;;6.33;5.72;;;;;;;0.69;100.00;98645.48;1786349;78;21918;-67
2022/11/22 06:11:07;;;;;;;5.83;5.20;;;;;;;0.65;100.00;98649.01;1777340;79;21528;-65
2022/11/22 06:13:36;;;;;;;5.97;4.92;;;;;;;0.64;100.00;98653.75;1779504;78;21048;-67
2022/11/22 06:16:04;;;;;;;6.25;5.50;;;;;;;0.51;100.00;98659.17;1781899;78;21048;-65
2022/11/22 10:19:46;;;;;;;5.83;5.28;;;;;;;-1.11;100.00;98851.59;1789020;78;23120;-63
2022/11/22 10:22:13;;;;;;;5.42;4.83;;;;;;;-0.05;100.00;98853.05;1762290;79;21498;-62
2022/11/22 10:24:41;;;;;;;9.43;5.83;;;;;;;0.27;100.00;98840.14;1765114;79;22051;-62
2022/11/22 10:27:13;;;;;;;6.28;5.70;;;;;;;0.46;100.00;98833.42;1767962;79;21943;-62
2022/11/22 10:29:55;;;;;;;6.72;6.12;;;;;;;0.61;100.00;98816.37;1764331;80;21530;-62
2022/11/22 10:32:39;;;;;;;6.67;6.05;;;;;;;0.78;100.00;98809.17;1764965;79;21628;-60
2022/11/22 10:35:22;;;;;;;7.28;6.08;;;;;;;0.92;100.00;98809.38;1769181;79;21502;-60
2022/11/22 10:38:03;;;;;;;6.22;5.62;;;;;;;1.07;100.00;98801.34;1756957;80;22039;-60
2022/11/22 10:40:58;;;;;;;6.00;5.50;;;;;;;1.19;100.00;98805.89;1759541;80;21564;-61
2022/11/22 10:43:56;;;;;;;6.50;5.90;;;;;;;1.21;100.00;98789.47;1765174;80;21552;-62
2022/11/22 10:46:46;;;;;;;6.85;6.15;;;;;;;1.29;100.00;98786.73;1763755;79;21534;-60
2022/11/22 10:49:18;;;;;;;6.40;5.80;;;;;;;1.35;100.00;98786.16;1742630;80;21546;-59
2022/11/22 10:52:17;;;;;;;6.05;5.45;;;;;;;1.46;100.00;98782.07;1765330;80;21850;-62
2022/11/22 10:55:25;;;;;;;6.75;6.05;;;;;;;1.62;100.00;98783.05;1724332;81;21582;-62
2022/11/22 10:58:28;;;;;;;;;;;;;;;1.74;100.00;98792.73;1690756;83;21517;-61
2022/11/22 11:01:20;;;;;;;6.85;6.15;;;;;;;1.72;100.00;98793.20;1690041;82;20456;-61
2022/11/22 11:03:48;;;;;;;7.15;6.35;;;;;;;1.84;100.00;98792.55;1704944;83;21581;-61
2022/11/22 11:06:34;;;;;;;7.17;6.47;;;;;;;1.86;100.00;98787.73;1700234;83;21765;-64
2022/11/22 11:09:24;;;;;;;6.80;6.20;;;;;;;1.90;100.00;98790.69;1736988;81;22289;-63
2022/11/22 11:11:51;;;;;;;6.17;5.67;;;;;;;1.92;100.00;98790.21;1724295;81;21545;-61
2022/11/22 11:14:30;;;;;;;6.75;6.05;;;;;;;1.91;100.00;98800.61;1739027;81;21647;-61
2022/11/22 11:16:57;;;;;;;7.83;7.08;;;;;;;1.89;100.00;98808.86;1703568;82;21567;-61
2022/11/22 11:19:23;;;;;;;8.28;6.35;;;;;;;1.89;100.00;98808.86;1694479;82;21878;-61
2022/11/22 11:22:08;;;;;;;8.00;7.10;;;;;;;1.91;100.00;98809.68;1696199;83;21451;-62
2022/11/22 11:24:37;;;;;;;9.73;6.95;;;;;;;1.88;100.00;98800.66;1692400;83;21585;-62
2022/11/22 11:27:04;;;;;;;8.70;6.70;;;;;;;1.79;100.00;98813.39;1752455;80;21820;-63
2022/11/22 11:29:42;;;;;;;7.37;6.20;;;;;;;1.81;100.00;98813.33;1753645;80;21871;-60
2022/11/22 11:32:18;;;;;;;7.37;6.67;;;;;;;1.77;100.00;98815.12;1747589;80;21923;-61
2022/11/22 11:34:59;;;;;;;7.85;6.87;;;;;;;1.78;100.00;98816.01;1747897;80;21622;-62
2022/11/22 11:37:35;;;;;;;6.75;6.10;;;;;;;1.83;100.00;98813.73;1738995;80;21616;-60
2022/11/22 11:40:04;;;;;;;6.95;6.28;;;;;;;1.84;100.00;98822.35;1752724;80;21704;-61
2022/11/22 11:42:33;;;;;;;7.28;5.83;;;;;;;1.90;100.00;98820.92;1745241;80;21538;-60
2022/11/22 11:45:22;;;;;;;7.15;6.47;;;;;;;1.97;100.00;98818.63;1754921;80;21818;-59
2022/11/22 11:47:49;;;;;;;7.00;6.35;;;;;;;1.98;100.00;98809.97;1749047;80;21508;-59
2022/11/22 11:50:27;;;;;;;6.55;6.03;;;;;;;1.98;100.00;98813.86;1739898;80;21740;-61
2022/11/22 11:53:04;;;;;;;7.35;6.65;;;;;;;1.86;100.00;98815.39;1752288;80;28650;-62
2022/11/22 11:55:33;;;;;;;6.42;5.83;;;;;;;1.82;100.00;98817.20;1756249;80;21545;-63
2022/11/22 11:58:01;;;;;;;6.80;6.10;;;;;;;1.68;100.00;98821.38;1746487;80;21775;-65
2022/11/22 12:00:37;;;;;;;7.20;6.50;;;;;;;1.61;100.00;98830.14;1749367;80;21498;-62
2022/11/22 12:03:06;;;;;;;6.80;6.12;;;;;;;1.56;100.00;98837.14;1749047;80;21585;-62
2022/11/22 12:05:33;;;;;;;5.95;5.45;;;;;;;1.45;100.00;98834.78;1746328;80;21544;-61
2022/11/22 12:08:00;;;;;;;6.58;5.97;;;;;;;1.46;100.00;98826.11;1753253;80;21557;-61
2022/11/22 12:10:35;;;;;;;6.40;5.80;;;;;;;1.46;100.00;98828.70;1748093;80;21811;-61
2022/11/22 12:13:43;;;;;;;6.50;5.85;;;;;;;1.48;100.00;98839.88;1715074;82;21609;-62
2022/11/22 12:16:22;;;;;;;6.53;5.85;;;;;;;1.51;100.00;98854.53;1747931;80;21511;-61
2022/11/22 12:19:13;;;;;;;5.37;4.87;;;;;;;1.51;100.00;98867.05;1733587;80;21614;-62
2022/11/22 12:22:01;;;;;;;6.10;5.50;;;;;;;1.44;100.00;98861.55;1751167;80;21540;-63
2022/11/22 12:24:52;;;;;;;5.78;5.25;;;;;;;1.39;100.00;98858.19;1742364;80;21766;-63
2022/11/22 12:27:19;;;;;;;4.70;4.30;;;;;;;1.46;100.00;98861.09;1747323;80;21673;-62
2022/11/22 12:29:46;;;;;;;6.97;6.20;;;;;;;1.48;100.00;98869.68;1746680;80;21573;-61
2022/11/22 12:32:27;;;;;;;6.60;5.97;;;;;;;1.41;100.00;98872.41;1747538;80;21741;-62
2022/11/22 12:35:15;;;;;;;5.83;5.20;;;;;;;1.33;100.00;98875.14;1738780;80;21568;-63
2022/11/22 12:38:01;;;;;;;6.03;5.00;;;;;;;1.33;100.00;98881.16;1750877;80;21474;-62
2022/11/22 12:40:40;;;;;;;7.05;6.35;;;;;;;1.33;100.00;98877.28;1739366;80;21534;-63
2022/11/22 12:43:23;;;;;;;6.37;5.78;;;;;;;1.34;100.00;98882.89;1739681;80;21569;-62
2022/11/22 12:45:56;;;;;;;5.87;5.33;;;;;;;1.36;100.00;98880.28;1737916;80;21519;-62
2022/11/22 12:48:34;;;;;;;7.00;6.30;;;;;;;1.42;100.00;98876.72;1749460;80;21605;-62
2022/11/22 12:51:25;;;;;;;6.87;6.05;;;;;;;1.43;100.00;98877.12;1758916;80;21076;-63
2022/11/22 12:53:54;;;;;;;7.47;6.62;;;;;;;1.42;100.00;98878.86;1742714;80;21664;-62
2022/11/22 12:56:37;;;;;;;7.00;6.30;;;;;;;1.42;100.00;98886.64;1714178;82;21583;-62
2022/11/22 12:59:19;;;;;;;7.12;6.35;;;;;;;1.47;100.00;98893.89;1754330;80;21549;-63
2022/11/22 13:01:55;;;;;;;6.78;6.10;;;;;;;1.48;100.00;98892.15;1750242;80;21541;-62
2022/11/22 13:04:56;;;;;;;8.38;7.10;;;;;;;1.49;100.00;98889.98;1740149;80;22138;-62
2022/11/22 13:07:44;;;;;;;7.58;6.80;;;;;;;1.52;100.00;98898.98;1749918;80;21697;-61
2022/11/22 13:10:37;;;;;;;7.37;6.20;;;;;;;1.49;100.00;98899.05;1751329;80;21017;-63
2022/11/22 13:13:07;;;;;;;7.95;6.78;;;;;;;1.53;100.00;98895.07;1746045;80;21534;-62
2022/11/22 13:15:35;;;;;;;7.58;6.87;;;;;;;1.61;100.00;98889.75;1752638;80;21546;-62
2022/11/22 13:18:06;;;;;;;9.30;7.27;;;;;;;1.66;100.00;98893.12;1743816;80;21852;-61
2022/11/22 13:20:36;;;;;;;8.55;7.00;;;;;;;1.62;100.00;98884.99;1730706;80;20946;-62
2022/11/22 13:23:23;;;;;;;8.08;6.87;;;;;;;1.62;100.00;98887.58;1752987;80;21618;-64
2022/11/22 13:26:11;;;;;;;7.78;6.97;;;;;;;1.66;100.00;98881.45;1750269;80;21506;-63
2022/11/22 13:28:39;;;;;;;9.05;7.05;;;;;;;1.65;100.00;98887.95;1759955;80;21510;-63
2022/11/22 13:31:15;;;;;;;8.33;7.47;;;;;;;1.68;100.00;98892.64;1764383;80;21813;-62
2022/11/22 13:33:57;;;;;;;7.67;6.97;;;;;;;1.68;100.00;98891.34;1759242;80;21624;-64
2022/11/22 13:36:35;;;;;;;7.87;7.08;;;;;;;1.65;100.00;98896.58;1760167;80;21821;-61
2022/11/22 13:39:07;;;;;;;8.53;7.62;;;;;;;1.71;100.00;98900.79;1743553;80;21138;-61
2022/11/22 13:41:38;;;;;;;8.53;7.42;;;;;;;1.73;100.00;98904.20;1762214;80;21491;-61
2022/11/22 13:44:26;;;;;;;8.55;7.28;;;;;;;1.73;100.00;98898.60;1763282;80;21681;-65
2022/11/22 13:46:59;;;;;;;7.78;7.05;;;;;;;1.74;100.00;98891.67;1748702;80;21037;-64
2022/11/22 13:49:46;;;;;;;9.93;7.62;;;;;;;1.80;100.00;98894.59;1755134;80;21596;-63
2022/11/22 13:52:21;;;;;;;9.03;7.50;;;;;;;1.77;100.00;98898.08;1755298;80;21530;-62
2022/11/22 13:54:57;;;;;;;7.75;7.05;;;;;;;1.75;100.00;98896.83;1765516;80;21082;-61
2022/11/22 13:57:39;;;;;;;8.20;7.40;;;;;;;1.78;100.00;98900.25;1760977;80;22375;-62
2022/11/22 14:00:15;;;;;;;7.67;6.97;;;;;;;1.82;100.00;98905.78;1768985;80;21612;-62
2022/11/22 14:02:57;;;;;;;7.87;7.08;;;;;;;1.89;100.00;98900.89;1764048;80;21573;-63
2022/11/22 14:05:36;;;;;;;7.62;6.87;;;;;;;1.91;100.00;98897.83;1716416;80;21594;-61
2022/11/22 14:08:05;;;;;;;7.08;6.37;;;;;;;1.89;100.00;98904.33;1729679;80;21060;-61
2022/11/22 14:10:39;;;;;;;7.70;6.97;;;;;;;1.79;100.00;98898.05;1760225;80;22285;-60
2022/11/22 14:13:47;;;;;;;8.35;7.47;;;;;;;1.80;100.00;98912.28;1751735;80;21029;-60
2022/11/22 14:16:46;;;;;;;7.92;7.17;;;;;;;1.85;100.00;98919.54;1764749;80;21812;-60
2022/11/22 14:19:39;;;;;;;8.28;7.42;;;;;;;1.90;100.00;98908.65;1754721;80;22095;-60
2022/11/22 14:22:33;;;;;;;9.93;7.60;;;;;;;1.89;100.00;98916.00;1683576;84;21538;-60
2022/11/22 14:25:55;;;;;;;7.95;7.15;;;;;;;1.85;100.00;98925.17;1659699;84;21945;-68
2022/11/22 14:28:56;;;;;;;9.53;7.87;;;;;;;1.86;100.00;98927.71;1693501;84;21561;-68
2022/11/22 14:31:31;;;;;;;10.90;8.70;;;;;;;1.79;100.00;98943.41;1642967;84;21597;-67
2022/11/22 14:34:23;;;;;;;9.50;8.33;;;;;;;1.70;100.00;98937.98;1692019;84;21562;-67
2022/11/22 14:37:16;;;;;;;8.98;8.05;;;;;;;1.70;100.00;98945.30;1651584;85;21615;-68
2022/11/22 14:39:52;;;;;;;7.47;6.67;;;;;;;1.73;100.00;98945.67;1688705;84;22128;-68
2022/11/22 14:42:39;;;;;;;;;;;;;;;1.71;100.00;98941.84;1691460;84;21576;-68
2022/11/22 14:45:13;;;;;;;9.13;7.37;;;;;;;1.69;100.00;98963.02;1631133;85;20474;-71
2022/11/22 14:48:01;;;;;;;8.33;7.30;;;;;;;1.65;100.00;98949.70;1691415;84;21525;-68
2022/11/22 14:50:39;;;;;;;7.67;6.92;;;;;;;1.71;100.00;98951.33;1693576;84;21569;-69
2022/11/22 14:53:38;;;;;;;8.65;7.25;;;;;;;1.75;100.00;98943.91;1692098;84;23334;-68
2022/11/22 14:56:17;;;;;;;6.92;6.22;;;;;;;1.81;100.00;98945.11;1688654;84;21660;-69
2022/11/22 14:59:10;;;;;;;7.62;6.83;;;;;;;1.86;100.00;98941.97;1686269;84;21006;-66
2022/11/22 15:02:21;;;;;;;8.33;6.80;;;;;;;1.85;100.00;98949.80;1684240;82;21550;-67
2022/11/22 15:05:25;;;;;;;8.73;7.60;;;;;;;1.87;100.00;98949.33;1660332;84;21420;-68
2022/11/22 15:08:29;;;;;;;8.45;7.05;;;;;;;1.87;100.00;98946.29;1688114;84;21604;-69
2022/11/22 15:11:27;;;;;;;8.75;7.28;;;;;;;1.82;100.00;98951.98;1687237;82;21529;-69
2022/11/22 15:14:08;;;;;;;8.40;7.28;;;;;;;1.81;100.00;98967.15;1694564;84;21585;-70
2022/11/22 15:16:37;;;;;;;9.28;6.92;;;;;;;1.80;100.00;98965.88;1692845;84;21144;-71
2022/11/22 15:19:05;;;;;;;11.22;8.70;;;;;;;1.85;100.00;98980.46;1657159;84;21542;-69
2022/11/22 15:21:34;;;;;;;10.82;8.28;;;;;;;1.83;100.00;98976.16;1689613;82;21823;-69
2022/11/22 15:24:01;;;;;;;12.00;9.18;;;;;;;1.85;100.00;98975.27;1658341;84;21526;-69
2022/11/22 15:26:30;;;;;;;11.73;10.10;;;;;;;1.89;100.00;98979.97;1632089;87;21522;-68
2022/11/22 15:28:58;;;;;;;;;;;;;;;1.85;100.00;98984.80;1690625;84;21518;-68
2022/11/22 15:31:31;;;;;;;9.93;8.78;;;;;;;1.80;100.00;98984.02;1650328;85;20440;-68
2022/11/22 15:33:58;;;;;;;13.10;9.45;;;;;;;1.84;100.00;98987.81;1688277;84;21952;-69
2022/11/22 15:36:49;;;;;;;11.53;9.28;;;;;;;1.89;100.00;98983.41;1689052;84;21476;-73
2022/11/22 15:39:17;;;;;;;16.10;9.83;;;;;;;1.86;100.00;98986.04;1690765;84;21522;-71
2022/11/22 15:41:48;;;;;;;12.93;10.75;;;;;;;1.86;100.00;98983.45;1694028;83;21609;-71
2022/11/22 15:44:15;;;;;;;13.03;10.70;;;;;;;1.86;100.00;98983.45;1686664;84;21542;-67
2022/11/22 15:46:43;;;;;;;;;;;;;;;1.91;100.00;98990.71;1688517;83;21865;-69
2022/11/22 15:49:16;;;;;;;12.87;10.37;;;;;;;1.90;100.00;98991.61;1687559;84;20204;-68
2022/11/22 15:51:56;;;;;;;13.93;10.15;;;;;;;1.88;100.00;98995.94;1678059;84;21569;-68
2022/11/22 15:54:24;;;;;;;13.53;10.32;;;;;;;1.93;100.00;99007.55;1688651;84;21585;-68
2022/11/22 15:56:58;;;;;;;12.03;9.55;;;;;;;1.98;100.00;99003.14;1683496;84;21529;-68
2022/11/22 15:59:31;;;;;;;11.05;9.53;;;;;;;2.05;100.00;98994.79;1692845;82;21901;-67
2022/11/22 16:01:58;;;;;;;11.85;9.68;;;;;;;2.10;100.00;98991.67;1688413;84;21777;-68
2022/11/22 16:04:29;;;;;;;14.28;10.48;;;;;;;2.07;100.00;98993.02;1689629;83;26606;-68
2022/11/22 16:06:58;;;;;;;12.63;9.98;;;;;;;2.10;100.00;98998.16;1688323;84;21514;-68
2022/11/22 16:09:36;;;;;;;14.43;11.48;;;;;;;2.11;100.00;99004.62;1650033;85;21518;-69
2022/11/22 16:12:06;;;;;;;13.50;10.68;;;;;;;2.13;100.00;98996.36;1631842;87;21858;-70
2022/11/22 16:14:43;;;;;;;17.60;12.35;;;;;;;2.17;100.00;99001.05;1684794;84;22040;-72
2022/11/22 16:17:24;;;;;;;19.73;11.80;;;;;;;2.16;100.00;99006.27;1683786;84;21537;-70
2022/11/22 16:19:52;;;;;;;16.20;10.43;;;;;;;2.14;100.00;99004.54;1688601;84;21513;-71